sensor_id;sensor_type;location;lat;lon;timestamp;P1;durP1;ratioP1;P2;durP2;ratioP2
5014;SDS011;2526;51.060;4.228;2023-08-31T00:01:35;2.22;;;0.73;;
5014;SDS011;2526;51.060;4.228;2023-08-31T00:04:00;0.90;;;0.73;;
5014;SDS011;2526;51.060;4.228;2023-08-31T00:06:26;7.63;;;1.35;;
5014;SDS011;2526;51.060;4.228;2023-08-31T00:08:51;1.73;;;1.40;;
5014;SDS011;2526;51.060;4.228;2023-08-31T00:11:17;1.05;;;0.80;;
5014;SDS011;2526;51.060;4.228;2023-08-31T00:13:42;3.20;;;1.10;;
5014;SDS011;2526;51.060;4.228;2023-08-31T00:16:08;2.53;;;0.95;;
5014;SDS011;2526;51.060;4.228;2023-08-31T00:18:35;2.97;;;1.08;;
5014;SDS011;2526;51.060;4.228;2023-08-31T00:21:01;2.65;;;1.50;;
5014;SDS011;2526;51.060;4.228;2023-08-31T00:23:27;1.77;;;0.70;;
5014;SDS011;2526;51.060;4.228;2023-08-31T00:25:53;2.90;;;1.00;;
5014;SDS011;2526;51.060;4.228;2023-08-31T00:28:19;1.83;;;1.20;;
5014;SDS011;2526;51.060;4.228;2023-08-31T00:30:44;2.05;;;0.90;;
5014;SDS011;2526;51.060;4.228;2023-08-31T00:33:13;2.38;;;1.50;;
5014;SDS011;2526;51.060;4.228;2023-08-31T00:35:38;0.80;;;0.68;;
5014;SDS011;2526;51.060;4.228;2023-08-31T00:38:09;2.00;;;1.20;;
5014;SDS011;2526;51.060;4.228;2023-08-31T00:40:38;2.40;;;1.08;;
5014;SDS011;2526;51.060;4.228;2023-08-31T00:43:05;1.52;;;1.30;;
5014;SDS011;2526;51.060;4.228;2023-08-31T00:45:30;3.35;;;1.52;;
5014;SDS011;2526;51.060;4.228;2023-08-31T00:47:56;3.08;;;1.30;;
5014;SDS011;2526;51.060;4.228;2023-08-31T00:50:22;2.53;;;1.17;;
5014;SDS011;2526;51.060;4.228;2023-08-31T00:52:48;3.22;;;2.33;;
5014;SDS011;2526;51.060;4.228;2023-08-31T00:55:13;1.92;;;1.33;;
5014;SDS011;2526;51.060;4.228;2023-08-31T00:57:39;2.00;;;1.30;;
5014;SDS011;2526;51.060;4.228;2023-08-31T01:00:06;2.35;;;1.40;;
5014;SDS011;2526;51.060;4.228;2023-08-31T01:08:07;3.08;;;1.20;;
5014;SDS011;2526;51.060;4.228;2023-08-31T01:10:47;4.90;;;1.48;;
5014;SDS011;2526;51.060;4.228;2023-08-31T01:13:15;1.45;;;0.77;;
5014;SDS011;2526;51.060;4.228;2023-08-31T01:15:44;1.85;;;1.20;;
5014;SDS011;2526;51.060;4.228;2023-08-31T01:18:11;1.60;;;0.90;;
5014;SDS011;2526;51.060;4.228;2023-08-31T01:20:42;2.08;;;1.27;;
5014;SDS011;2526;51.060;4.228;2023-08-31T01:23:10;2.10;;;1.30;;
5014;SDS011;2526;51.060;4.228;2023-08-31T01:25:38;6.22;;;1.70;;
5014;SDS011;2526;51.060;4.228;2023-08-31T01:28:05;2.38;;;0.98;;
5014;SDS011;2526;51.060;4.228;2023-08-31T01:30:31;2.90;;;1.52;;
5014;SDS011;2526;51.060;4.228;2023-08-31T01:32:57;1.60;;;0.88;;
5014;SDS011;2526;51.060;4.228;2023-08-31T01:35:22;5.30;;;1.90;;
5014;SDS011;2526;51.060;4.228;2023-08-31T01:42:46;2.25;;;1.48;;
5014;SDS011;2526;51.060;4.228;2023-08-31T01:45:15;2.42;;;1.40;;
5014;SDS011;2526;51.060;4.228;2023-08-31T01:47:42;1.92;;;0.93;;
5014;SDS011;2526;51.060;4.228;2023-08-31T01:50:08;4.65;;;1.80;;
5014;SDS011;2526;51.060;4.228;2023-08-31T01:52:33;3.35;;;2.60;;
5014;SDS011;2526;51.060;4.228;2023-08-31T01:54:59;3.33;;;1.42;;
5014;SDS011;2526;51.060;4.228;2023-08-31T01:57:24;1.85;;;1.40;;
5014;SDS011;2526;51.060;4.228;2023-08-31T01:59:50;6.68;;;2.38;;
5014;SDS011;2526;51.060;4.228;2023-08-31T02:02:15;4.80;;;2.15;;
5014;SDS011;2526;51.060;4.228;2023-08-31T02:04:41;3.13;;;1.67;;
5014;SDS011;2526;51.060;4.228;2023-08-31T02:07:07;2.92;;;2.08;;
5014;SDS011;2526;51.060;4.228;2023-08-31T02:09:32;7.82;;;1.98;;
5014;SDS011;2526;51.060;4.228;2023-08-31T02:11:58;2.88;;;1.67;;
5014;SDS011;2526;51.060;4.228;2023-08-31T02:14:24;2.42;;;1.17;;
5014;SDS011;2526;51.060;4.228;2023-08-31T02:16:50;1.02;;;0.85;;
5014;SDS011;2526;51.060;4.228;2023-08-31T02:19:15;3.25;;;1.40;;
5014;SDS011;2526;51.060;4.228;2023-08-31T02:21:40;2.03;;;1.30;;
5014;SDS011;2526;51.060;4.228;2023-08-31T02:24:06;3.20;;;1.55;;
5014;SDS011;2526;51.060;4.228;2023-08-31T02:26:31;3.58;;;1.77;;
5014;SDS011;2526;51.060;4.228;2023-08-31T02:28:57;3.30;;;1.85;;
5014;SDS011;2526;51.060;4.228;2023-08-31T02:31:23;3.60;;;1.35;;
5014;SDS011;2526;51.060;4.228;2023-08-31T02:33:48;2.88;;;1.58;;
5014;SDS011;2526;51.060;4.228;2023-08-31T02:36:15;3.35;;;1.75;;
5014;SDS011;2526;51.060;4.228;2023-08-31T02:38:40;2.53;;;1.63;;
5014;SDS011;2526;51.060;4.228;2023-08-31T02:41:05;3.38;;;1.58;;
5014;SDS011;2526;51.060;4.228;2023-08-31T02:43:31;5.95;;;2.13;;
5014;SDS011;2526;51.060;4.228;2023-08-31T02:46:00;2.30;;;1.17;;
5014;SDS011;2526;51.060;4.228;2023-08-31T02:48:26;3.22;;;2.22;;
5014;SDS011;2526;51.060;4.228;2023-08-31T02:50:53;3.40;;;1.88;;
5014;SDS011;2526;51.060;4.228;2023-08-31T02:53:19;2.65;;;1.90;;
5014;SDS011;2526;51.060;4.228;2023-08-31T02:55:44;3.25;;;1.70;;
5014;SDS011;2526;51.060;4.228;2023-08-31T02:58:09;4.22;;;1.75;;
5014;SDS011;2526;51.060;4.228;2023-08-31T03:00:35;3.55;;;2.85;;
5014;SDS011;2526;51.060;4.228;2023-08-31T03:03:00;5.55;;;2.63;;
5014;SDS011;2526;51.060;4.228;2023-08-31T03:05:26;5.13;;;1.83;;
5014;SDS011;2526;51.060;4.228;2023-08-31T03:07:51;3.63;;;2.13;;
5014;SDS011;2526;51.060;4.228;2023-08-31T03:10:17;4.57;;;2.05;;
5014;SDS011;2526;51.060;4.228;2023-08-31T03:12:42;1.90;;;1.30;;
5014;SDS011;2526;51.060;4.228;2023-08-31T03:15:08;3.30;;;2.00;;
5014;SDS011;2526;51.060;4.228;2023-08-31T03:17:33;2.58;;;1.73;;
5014;SDS011;2526;51.060;4.228;2023-08-31T03:19:59;2.45;;;1.73;;
5014;SDS011;2526;51.060;4.228;2023-08-31T03:22:24;5.70;;;2.03;;
5014;SDS011;2526;51.060;4.228;2023-08-31T03:24:50;4.47;;;2.45;;
5014;SDS011;2526;51.060;4.228;2023-08-31T03:27:15;2.20;;;1.55;;
5014;SDS011;2526;51.060;4.228;2023-08-31T03:29:45;6.80;;;2.63;;
5014;SDS011;2526;51.060;4.228;2023-08-31T03:32:10;3.17;;;1.98;;
5014;SDS011;2526;51.060;4.228;2023-08-31T03:34:36;2.00;;;1.25;;
5014;SDS011;2526;51.060;4.228;2023-08-31T03:37:01;5.20;;;2.42;;
5014;SDS011;2526;51.060;4.228;2023-08-31T03:39:27;4.35;;;2.30;;
5014;SDS011;2526;51.060;4.228;2023-08-31T03:41:52;5.78;;;1.42;;
5014;SDS011;2526;51.060;4.228;2023-08-31T03:44:18;2.70;;;2.13;;
5014;SDS011;2526;51.060;4.228;2023-08-31T03:46:43;2.60;;;1.52;;
5014;SDS011;2526;51.060;4.228;2023-08-31T03:49:09;3.47;;;1.98;;
5014;SDS011;2526;51.060;4.228;2023-08-31T03:51:34;2.17;;;1.55;;
5014;SDS011;2526;51.060;4.228;2023-08-31T03:54:00;2.20;;;1.35;;
5014;SDS011;2526;51.060;4.228;2023-08-31T03:56:25;3.63;;;1.73;;
5014;SDS011;2526;51.060;4.228;2023-08-31T03:58:52;2.85;;;1.77;;
5014;SDS011;2526;51.060;4.228;2023-08-31T04:01:17;4.32;;;1.67;;
5014;SDS011;2526;51.060;4.228;2023-08-31T04:03:43;3.20;;;1.85;;
5014;SDS011;2526;51.060;4.228;2023-08-31T04:06:08;3.20;;;2.00;;
5014;SDS011;2526;51.060;4.228;2023-08-31T04:08:34;4.93;;;2.55;;
5014;SDS011;2526;51.060;4.228;2023-08-31T04:10:59;4.15;;;2.55;;
5014;SDS011;2526;51.060;4.228;2023-08-31T04:13:25;5.90;;;3.05;;
5014;SDS011;2526;51.060;4.228;2023-08-31T04:15:51;4.82;;;2.28;;
5014;SDS011;2526;51.060;4.228;2023-08-31T04:18:16;3.28;;;2.22;;
5014;SDS011;2526;51.060;4.228;2023-08-31T04:20:48;4.13;;;2.45;;
5014;SDS011;2526;51.060;4.228;2023-08-31T04:23:15;5.38;;;2.90;;
5014;SDS011;2526;51.060;4.228;2023-08-31T04:25:40;5.65;;;4.35;;
5014;SDS011;2526;51.060;4.228;2023-08-31T04:28:07;6.82;;;3.85;;
5014;SDS011;2526;51.060;4.228;2023-08-31T04:30:32;5.53;;;2.83;;
5014;SDS011;2526;51.060;4.228;2023-08-31T04:32:58;6.32;;;3.13;;
5014;SDS011;2526;51.060;4.228;2023-08-31T04:35:23;5.15;;;3.22;;
5014;SDS011;2526;51.060;4.228;2023-08-31T04:37:49;9.18;;;3.67;;
5014;SDS011;2526;51.060;4.228;2023-08-31T04:40:15;5.93;;;3.50;;
5014;SDS011;2526;51.060;4.228;2023-08-31T04:42:40;5.18;;;3.38;;
5014;SDS011;2526;51.060;4.228;2023-08-31T04:45:06;6.88;;;3.60;;
5014;SDS011;2526;51.060;4.228;2023-08-31T04:47:32;6.57;;;2.95;;
5014;SDS011;2526;51.060;4.228;2023-08-31T04:49:58;7.90;;;4.03;;
5014;SDS011;2526;51.060;4.228;2023-08-31T04:52:24;6.05;;;4.13;;
5014;SDS011;2526;51.060;4.228;2023-08-31T04:54:50;7.32;;;5.15;;
5014;SDS011;2526;51.060;4.228;2023-08-31T04:57:15;6.43;;;4.60;;
5014;SDS011;2526;51.060;4.228;2023-08-31T04:59:42;7.50;;;4.35;;
5014;SDS011;2526;51.060;4.228;2023-08-31T05:02:08;5.60;;;3.88;;
5014;SDS011;2526;51.060;4.228;2023-08-31T05:04:33;5.68;;;3.80;;
5014;SDS011;2526;51.060;4.228;2023-08-31T05:06:59;6.13;;;4.00;;
5014;SDS011;2526;51.060;4.228;2023-08-31T05:09:25;8.50;;;4.25;;
5014;SDS011;2526;51.060;4.228;2023-08-31T05:11:50;7.07;;;4.43;;
5014;SDS011;2526;51.060;4.228;2023-08-31T05:14:16;6.90;;;4.63;;
5014;SDS011;2526;51.060;4.228;2023-08-31T05:16:41;7.55;;;3.28;;
5014;SDS011;2526;51.060;4.228;2023-08-31T05:19:07;4.28;;;2.85;;
5014;SDS011;2526;51.060;4.228;2023-08-31T05:21:32;8.57;;;3.15;;
5014;SDS011;2526;51.060;4.228;2023-08-31T05:23:58;6.03;;;3.08;;
5014;SDS011;2526;51.060;4.228;2023-08-31T05:26:23;5.10;;;2.35;;
5014;SDS011;2526;51.060;4.228;2023-08-31T05:28:49;4.03;;;2.42;;
5014;SDS011;2526;51.060;4.228;2023-08-31T05:31:15;5.72;;;3.00;;
5014;SDS011;2526;51.060;4.228;2023-08-31T05:33:40;5.47;;;2.83;;
5014;SDS011;2526;51.060;4.228;2023-08-31T05:36:06;6.32;;;2.92;;
5014;SDS011;2526;51.060;4.228;2023-08-31T05:38:31;5.93;;;3.35;;
5014;SDS011;2526;51.060;4.228;2023-08-31T05:41:06;2.08;;;1.60;;
5014;SDS011;2526;51.060;4.228;2023-08-31T05:43:35;5.95;;;2.58;;
5014;SDS011;2526;51.060;4.228;2023-08-31T05:46:01;5.63;;;2.63;;
5014;SDS011;2526;51.060;4.228;2023-08-31T05:48:26;10.52;;;3.45;;
5014;SDS011;2526;51.060;4.228;2023-08-31T05:50:53;7.65;;;3.25;;
5014;SDS011;2526;51.060;4.228;2023-08-31T05:53:18;8.27;;;3.13;;
5014;SDS011;2526;51.060;4.228;2023-08-31T05:55:44;5.40;;;2.95;;
5014;SDS011;2526;51.060;4.228;2023-08-31T05:58:09;6.40;;;2.85;;
5014;SDS011;2526;51.060;4.228;2023-08-31T06:00:34;4.13;;;2.47;;
5014;SDS011;2526;51.060;4.228;2023-08-31T06:03:02;4.88;;;2.80;;
5014;SDS011;2526;51.060;4.228;2023-08-31T06:05:30;4.38;;;2.67;;
5014;SDS011;2526;51.060;4.228;2023-08-31T06:07:57;4.40;;;3.03;;
5014;SDS011;2526;51.060;4.228;2023-08-31T06:10:22;5.20;;;2.67;;
5014;SDS011;2526;51.060;4.228;2023-08-31T06:12:49;7.78;;;3.47;;
5014;SDS011;2526;51.060;4.228;2023-08-31T06:15:15;14.73;;;2.38;;
5014;SDS011;2526;51.060;4.228;2023-08-31T06:17:41;4.20;;;2.08;;
5014;SDS011;2526;51.060;4.228;2023-08-31T06:20:07;9.55;;;2.92;;
5014;SDS011;2526;51.060;4.228;2023-08-31T06:22:33;3.95;;;2.70;;
5014;SDS011;2526;51.060;4.228;2023-08-31T06:24:59;6.88;;;2.63;;
5014;SDS011;2526;51.060;4.228;2023-08-31T06:27:24;4.22;;;2.22;;
5014;SDS011;2526;51.060;4.228;2023-08-31T06:29:50;6.80;;;2.15;;
5014;SDS011;2526;51.060;4.228;2023-08-31T06:32:16;7.43;;;2.25;;
5014;SDS011;2526;51.060;4.228;2023-08-31T06:34:41;4.55;;;2.38;;
5014;SDS011;2526;51.060;4.228;2023-08-31T06:37:07;4.07;;;2.65;;
5014;SDS011;2526;51.060;4.228;2023-08-31T06:39:32;3.47;;;1.90;;
5014;SDS011;2526;51.060;4.228;2023-08-31T06:41:58;3.60;;;1.83;;
5014;SDS011;2526;51.060;4.228;2023-08-31T06:44:24;3.70;;;2.30;;
5014;SDS011;2526;51.060;4.228;2023-08-31T06:46:49;4.80;;;2.15;;
5014;SDS011;2526;51.060;4.228;2023-08-31T06:49:14;4.07;;;2.42;;
5014;SDS011;2526;51.060;4.228;2023-08-31T06:51:40;5.40;;;2.67;;
5014;SDS011;2526;51.060;4.228;2023-08-31T06:54:05;2.83;;;1.70;;
5014;SDS011;2526;51.060;4.228;2023-08-31T06:56:33;6.88;;;2.25;;
5014;SDS011;2526;51.060;4.228;2023-08-31T06:58:59;5.22;;;2.15;;
5014;SDS011;2526;51.060;4.228;2023-08-31T07:01:24;3.97;;;1.98;;
5014;SDS011;2526;51.060;4.228;2023-08-31T07:03:50;4.72;;;1.98;;
5014;SDS011;2526;51.060;4.228;2023-08-31T07:06:16;3.13;;;1.85;;
5014;SDS011;2526;51.060;4.228;2023-08-31T07:08:42;7.00;;;2.60;;
5014;SDS011;2526;51.060;4.228;2023-08-31T07:11:10;3.75;;;2.53;;
5014;SDS011;2526;51.060;4.228;2023-08-31T07:13:36;5.18;;;2.30;;
5014;SDS011;2526;51.060;4.228;2023-08-31T07:16:01;5.03;;;3.00;;
5014;SDS011;2526;51.060;4.228;2023-08-31T07:18:27;7.50;;;2.47;;
5014;SDS011;2526;51.060;4.228;2023-08-31T07:20:52;9.57;;;2.17;;
5014;SDS011;2526;51.060;4.228;2023-08-31T07:23:17;8.00;;;2.63;;
5014;SDS011;2526;51.060;4.228;2023-08-31T07:25:43;7.25;;;1.92;;
5014;SDS011;2526;51.060;4.228;2023-08-31T07:28:09;3.55;;;2.22;;
5014;SDS011;2526;51.060;4.228;2023-08-31T07:30:34;8.18;;;3.25;;
5014;SDS011;2526;51.060;4.228;2023-08-31T07:33:00;6.03;;;2.22;;
5014;SDS011;2526;51.060;4.228;2023-08-31T07:35:29;8.85;;;2.05;;
5014;SDS011;2526;51.060;4.228;2023-08-31T07:37:54;5.03;;;2.90;;
5014;SDS011;2526;51.060;4.228;2023-08-31T07:40:20;7.50;;;2.08;;
5014;SDS011;2526;51.060;4.228;2023-08-31T07:42:45;6.75;;;3.47;;
5014;SDS011;2526;51.060;4.228;2023-08-31T07:45:11;12.27;;;3.17;;
5014;SDS011;2526;51.060;4.228;2023-08-31T07:47:36;13.00;;;2.85;;
5014;SDS011;2526;51.060;4.228;2023-08-31T07:50:02;6.13;;;3.35;;
5014;SDS011;2526;51.060;4.228;2023-08-31T07:52:27;7.38;;;3.70;;
5014;SDS011;2526;51.060;4.228;2023-08-31T07:54:53;5.78;;;2.55;;
5014;SDS011;2526;51.060;4.228;2023-08-31T07:57:19;8.32;;;4.03;;
5014;SDS011;2526;51.060;4.228;2023-08-31T07:59:44;6.38;;;2.50;;
5014;SDS011;2526;51.060;4.228;2023-08-31T08:02:10;4.60;;;2.63;;
5014;SDS011;2526;51.060;4.228;2023-08-31T08:04:35;6.70;;;3.25;;
5014;SDS011;2526;51.060;4.228;2023-08-31T08:07:01;9.82;;;2.92;;
5014;SDS011;2526;51.060;4.228;2023-08-31T08:09:26;11.35;;;2.92;;
5014;SDS011;2526;51.060;4.228;2023-08-31T08:11:51;5.55;;;2.72;;
5014;SDS011;2526;51.060;4.228;2023-08-31T08:14:17;6.47;;;3.10;;
5014;SDS011;2526;51.060;4.228;2023-08-31T08:16:42;10.38;;;3.42;;
5014;SDS011;2526;51.060;4.228;2023-08-31T08:19:08;4.82;;;2.17;;
5014;SDS011;2526;51.060;4.228;2023-08-31T08:21:34;13.50;;;3.20;;
5014;SDS011;2526;51.060;4.228;2023-08-31T08:23:59;7.03;;;2.88;;
5014;SDS011;2526;51.060;4.228;2023-08-31T08:26:25;5.72;;;3.60;;
5014;SDS011;2526;51.060;4.228;2023-08-31T08:28:50;4.65;;;2.55;;
5014;SDS011;2526;51.060;4.228;2023-08-31T08:31:16;3.30;;;2.67;;
5014;SDS011;2526;51.060;4.228;2023-08-31T08:33:41;11.00;;;3.15;;
5014;SDS011;2526;51.060;4.228;2023-08-31T08:36:07;4.50;;;2.95;;
5014;SDS011;2526;51.060;4.228;2023-08-31T08:38:32;5.05;;;2.65;;
5014;SDS011;2526;51.060;4.228;2023-08-31T08:40:57;8.77;;;2.58;;
5014;SDS011;2526;51.060;4.228;2023-08-31T08:43:29;7.57;;;3.00;;
5014;SDS011;2526;51.060;4.228;2023-08-31T08:45:54;5.82;;;2.92;;
5014;SDS011;2526;51.060;4.228;2023-08-31T08:48:23;15.27;;;4.38;;
5014;SDS011;2526;51.060;4.228;2023-08-31T08:50:49;9.27;;;3.60;;
5014;SDS011;2526;51.060;4.228;2023-08-31T08:53:15;3.67;;;2.13;;
5014;SDS011;2526;51.060;4.228;2023-08-31T08:55:41;3.95;;;2.58;;
5014;SDS011;2526;51.060;4.228;2023-08-31T08:58:06;8.55;;;3.83;;
5014;SDS011;2526;51.060;4.228;2023-08-31T09:00:32;6.88;;;2.80;;
5014;SDS011;2526;51.060;4.228;2023-08-31T09:02:57;7.00;;;1.95;;
5014;SDS011;2526;51.060;4.228;2023-08-31T09:05:23;11.38;;;2.97;;
5014;SDS011;2526;51.060;4.228;2023-08-31T09:08:06;13.13;;;3.03;;
5014;SDS011;2526;51.060;4.228;2023-08-31T09:10:44;9.80;;;4.13;;
5014;SDS011;2526;51.060;4.228;2023-08-31T09:13:11;4.13;;;1.80;;
5014;SDS011;2526;51.060;4.228;2023-08-31T09:15:49;3.13;;;1.90;;
5014;SDS011;2526;51.060;4.228;2023-08-31T09:18:15;7.88;;;2.55;;
5014;SDS011;2526;51.060;4.228;2023-08-31T09:20:47;6.30;;;2.22;;
5014;SDS011;2526;51.060;4.228;2023-08-31T09:23:13;5.70;;;2.05;;
5014;SDS011;2526;51.060;4.228;2023-08-31T09:25:42;8.30;;;2.28;;
5014;SDS011;2526;51.060;4.228;2023-08-31T09:28:09;3.85;;;1.95;;
5014;SDS011;2526;51.060;4.228;2023-08-31T09:30:35;5.45;;;1.58;;
5014;SDS011;2526;51.060;4.228;2023-08-31T09:33:00;4.60;;;1.38;;
5014;SDS011;2526;51.060;4.228;2023-08-31T09:35:26;4.50;;;2.28;;
5014;SDS011;2526;51.060;4.228;2023-08-31T09:37:55;3.63;;;1.80;;
5014;SDS011;2526;51.060;4.228;2023-08-31T09:40:23;2.33;;;1.33;;
5014;SDS011;2526;51.060;4.228;2023-08-31T09:42:50;3.38;;;1.60;;
5014;SDS011;2526;51.060;4.228;2023-08-31T09:45:25;5.18;;;2.25;;
5014;SDS011;2526;51.060;4.228;2023-08-31T09:47:51;4.40;;;1.73;;
5014;SDS011;2526;51.060;4.228;2023-08-31T09:50:17;4.75;;;1.98;;
5014;SDS011;2526;51.060;4.228;2023-08-31T09:52:42;3.58;;;1.90;;
5014;SDS011;2526;51.060;4.228;2023-08-31T09:55:10;6.78;;;2.67;;
5014;SDS011;2526;51.060;4.228;2023-08-31T09:57:36;3.92;;;1.80;;
5014;SDS011;2526;51.060;4.228;2023-08-31T10:00:02;4.10;;;2.17;;
5014;SDS011;2526;51.060;4.228;2023-08-31T10:02:29;9.00;;;2.17;;
5014;SDS011;2526;51.060;4.228;2023-08-31T10:04:55;6.47;;;1.55;;
5014;SDS011;2526;51.060;4.228;2023-08-31T10:07:21;3.83;;;1.83;;
5014;SDS011;2526;51.060;4.228;2023-08-31T10:09:47;2.95;;;2.00;;
5014;SDS011;2526;51.060;4.228;2023-08-31T10:12:13;9.98;;;2.00;;
5014;SDS011;2526;51.060;4.228;2023-08-31T10:14:39;4.78;;;1.80;;
5014;SDS011;2526;51.060;4.228;2023-08-31T10:17:04;7.53;;;2.22;;
5014;SDS011;2526;51.060;4.228;2023-08-31T10:19:30;5.43;;;1.38;;
5014;SDS011;2526;51.060;4.228;2023-08-31T10:21:55;2.45;;;1.40;;
5014;SDS011;2526;51.060;4.228;2023-08-31T10:27:18;5.97;;;2.03;;
5014;SDS011;2526;51.060;4.228;2023-08-31T10:29:44;5.57;;;1.38;;
5014;SDS011;2526;51.060;4.228;2023-08-31T10:32:09;6.47;;;1.73;;
5014;SDS011;2526;51.060;4.228;2023-08-31T10:34:35;2.40;;;1.45;;
5014;SDS011;2526;51.060;4.228;2023-08-31T10:37:02;5.15;;;0.95;;
5014;SDS011;2526;51.060;4.228;2023-08-31T10:39:37;12.18;;;0.80;;
5014;SDS011;2526;51.060;4.228;2023-08-31T10:42:02;3.97;;;0.85;;
5014;SDS011;2526;51.060;4.228;2023-08-31T10:44:30;8.48;;;1.70;;
5014;SDS011;2526;51.060;4.228;2023-08-31T10:46:58;3.58;;;1.52;;
5014;SDS011;2526;51.060;4.228;2023-08-31T10:49:24;5.85;;;1.35;;
5014;SDS011;2526;51.060;4.228;2023-08-31T10:51:57;2.42;;;0.98;;
5014;SDS011;2526;51.060;4.228;2023-08-31T10:59:20;3.97;;;1.20;;
5014;SDS011;2526;51.060;4.228;2023-08-31T11:04:21;2.20;;;1.45;;
5014;SDS011;2526;51.060;4.228;2023-08-31T11:06:47;3.33;;;1.08;;
5014;SDS011;2526;51.060;4.228;2023-08-31T11:09:19;2.40;;;0.82;;
5014;SDS011;2526;51.060;4.228;2023-08-31T11:11:45;2.60;;;0.97;;
5014;SDS011;2526;51.060;4.228;2023-08-31T11:14:11;1.70;;;1.15;;
5014;SDS011;2526;51.060;4.228;2023-08-31T11:16:39;6.32;;;1.48;;
5014;SDS011;2526;51.060;4.228;2023-08-31T11:19:05;3.03;;;1.60;;
5014;SDS011;2526;51.060;4.228;2023-08-31T11:21:31;1.95;;;1.00;;
5014;SDS011;2526;51.060;4.228;2023-08-31T11:23:57;0.90;;;0.70;;
5014;SDS011;2526;51.060;4.228;2023-08-31T11:26:26;3.35;;;1.25;;
5014;SDS011;2526;51.060;4.228;2023-08-31T11:28:51;2.67;;;1.65;;
5014;SDS011;2526;51.060;4.228;2023-08-31T11:31:24;1.08;;;0.70;;
5014;SDS011;2526;51.060;4.228;2023-08-31T11:33:49;1.48;;;0.98;;
5014;SDS011;2526;51.060;4.228;2023-08-31T11:36:15;9.30;;;1.50;;
5014;SDS011;2526;51.060;4.228;2023-08-31T11:38:43;2.08;;;1.15;;
5014;SDS011;2526;51.060;4.228;2023-08-31T11:41:08;3.25;;;1.20;;
5014;SDS011;2526;51.060;4.228;2023-08-31T11:43:34;9.88;;;1.55;;
5014;SDS011;2526;51.060;4.228;2023-08-31T11:45:59;2.15;;;1.80;;
5014;SDS011;2526;51.060;4.228;2023-08-31T11:48:25;5.28;;;1.88;;
5014;SDS011;2526;51.060;4.228;2023-08-31T11:50:50;4.28;;;1.73;;
5014;SDS011;2526;51.060;4.228;2023-08-31T11:53:18;5.72;;;1.90;;
5014;SDS011;2526;51.060;4.228;2023-08-31T11:55:50;2.35;;;1.42;;
5014;SDS011;2526;51.060;4.228;2023-08-31T11:58:16;5.90;;;1.85;;
5014;SDS011;2526;51.060;4.228;2023-08-31T12:00:45;5.63;;;1.60;;
5014;SDS011;2526;51.060;4.228;2023-08-31T12:03:12;4.70;;;1.38;;
5014;SDS011;2526;51.060;4.228;2023-08-31T12:05:47;1.90;;;1.10;;
5014;SDS011;2526;51.060;4.228;2023-08-31T12:08:13;2.72;;;1.08;;
5014;SDS011;2526;51.060;4.228;2023-08-31T12:10:41;3.67;;;1.40;;
5014;SDS011;2526;51.060;4.228;2023-08-31T12:13:07;3.10;;;1.27;;
5014;SDS011;2526;51.060;4.228;2023-08-31T12:15:33;2.85;;;1.15;;
5014;SDS011;2526;51.060;4.228;2023-08-31T12:17:58;3.03;;;0.85;;
5014;SDS011;2526;51.060;4.228;2023-08-31T12:20:27;1.13;;;0.60;;
5014;SDS011;2526;51.060;4.228;2023-08-31T12:22:53;6.05;;;0.77;;
5014;SDS011;2526;51.060;4.228;2023-08-31T12:25:21;5.00;;;1.13;;
5014;SDS011;2526;51.060;4.228;2023-08-31T12:27:47;3.92;;;1.25;;
5014;SDS011;2526;51.060;4.228;2023-08-31T12:30:12;2.90;;;1.02;;
5014;SDS011;2526;51.060;4.228;2023-08-31T12:32:39;1.02;;;0.68;;
5014;SDS011;2526;51.060;4.228;2023-08-31T12:35:05;0.90;;;0.75;;
5014;SDS011;2526;51.060;4.228;2023-08-31T12:37:31;2.50;;;0.98;;
5014;SDS011;2526;51.060;4.228;2023-08-31T12:39:57;4.53;;;0.98;;
5014;SDS011;2526;51.060;4.228;2023-08-31T12:42:23;0.75;;;0.75;;
5014;SDS011;2526;51.060;4.228;2023-08-31T12:44:48;4.45;;;1.38;;
5014;SDS011;2526;51.060;4.228;2023-08-31T12:47:14;1.85;;;0.70;;
5014;SDS011;2526;51.060;4.228;2023-08-31T12:49:39;0.57;;;0.57;;
5014;SDS011;2526;51.060;4.228;2023-08-31T12:52:05;2.00;;;1.05;;
5014;SDS011;2526;51.060;4.228;2023-08-31T12:54:30;1.83;;;0.77;;
5014;SDS011;2526;51.060;4.228;2023-08-31T12:56:56;9.93;;;1.23;;
5014;SDS011;2526;51.060;4.228;2023-08-31T12:59:22;2.13;;;1.02;;
5014;SDS011;2526;51.060;4.228;2023-08-31T13:01:47;2.85;;;0.95;;
5014;SDS011;2526;51.060;4.228;2023-08-31T13:04:13;2.80;;;0.93;;
5014;SDS011;2526;51.060;4.228;2023-08-31T13:06:39;4.30;;;1.58;;
5014;SDS011;2526;51.060;4.228;2023-08-31T13:09:05;0.90;;;0.85;;
5014;SDS011;2526;51.060;4.228;2023-08-31T13:11:33;5.93;;;1.40;;
5014;SDS011;2526;51.060;4.228;2023-08-31T13:13:59;6.30;;;1.45;;
5014;SDS011;2526;51.060;4.228;2023-08-31T13:16:24;2.13;;;0.98;;
5014;SDS011;2526;51.060;4.228;2023-08-31T13:18:50;6.97;;;0.98;;
5014;SDS011;2526;51.060;4.228;2023-08-31T13:21:15;6.35;;;1.40;;
5014;SDS011;2526;51.060;4.228;2023-08-31T13:23:41;2.83;;;0.80;;
5014;SDS011;2526;51.060;4.228;2023-08-31T13:26:09;5.05;;;0.75;;
5014;SDS011;2526;51.060;4.228;2023-08-31T13:28:35;2.03;;;1.00;;
5014;SDS011;2526;51.060;4.228;2023-08-31T13:31:00;8.07;;;0.95;;
5014;SDS011;2526;51.060;4.228;2023-08-31T13:33:29;1.65;;;0.68;;
5014;SDS011;2526;51.060;4.228;2023-08-31T13:35:56;1.60;;;0.57;;
5014;SDS011;2526;51.060;4.228;2023-08-31T13:38:22;5.07;;;0.80;;
5014;SDS011;2526;51.060;4.228;2023-08-31T13:40:48;0.63;;;0.60;;
5014;SDS011;2526;51.060;4.228;2023-08-31T13:43:13;0.95;;;0.90;;
5014;SDS011;2526;51.060;4.228;2023-08-31T13:45:39;1.67;;;0.70;;
5014;SDS011;2526;51.060;4.228;2023-08-31T13:48:04;2.17;;;0.45;;
5014;SDS011;2526;51.060;4.228;2023-08-31T13:50:30;3.97;;;0.75;;
5014;SDS011;2526;51.060;4.228;2023-08-31T13:52:55;0.90;;;0.40;;
5014;SDS011;2526;51.060;4.228;2023-08-31T13:55:21;2.33;;;0.80;;
5014;SDS011;2526;51.060;4.228;2023-08-31T13:57:47;0.40;;;0.30;;
5014;SDS011;2526;51.060;4.228;2023-08-31T14:00:15;4.20;;;0.77;;
5014;SDS011;2526;51.060;4.228;2023-08-31T14:02:42;1.50;;;0.60;;
5014;SDS011;2526;51.060;4.228;2023-08-31T14:05:08;2.67;;;1.02;;
5014;SDS011;2526;51.060;4.228;2023-08-31T14:07:38;1.90;;;1.05;;
5014;SDS011;2526;51.060;4.228;2023-08-31T14:10:04;2.35;;;0.70;;
5014;SDS011;2526;51.060;4.228;2023-08-31T14:12:33;5.72;;;1.58;;
5014;SDS011;2526;51.060;4.228;2023-08-31T14:14:58;4.78;;;1.48;;
5014;SDS011;2526;51.060;4.228;2023-08-31T14:17:26;3.38;;;0.93;;
5014;SDS011;2526;51.060;4.228;2023-08-31T14:19:51;3.92;;;1.75;;
5014;SDS011;2526;51.060;4.228;2023-08-31T14:22:16;6.45;;;0.98;;
5014;SDS011;2526;51.060;4.228;2023-08-31T14:24:42;2.03;;;0.82;;
5014;SDS011;2526;51.060;4.228;2023-08-31T14:27:07;2.70;;;0.80;;
5014;SDS011;2526;51.060;4.228;2023-08-31T14:29:33;5.55;;;1.33;;
5014;SDS011;2526;51.060;4.228;2023-08-31T14:32:00;1.23;;;0.80;;
5014;SDS011;2526;51.060;4.228;2023-08-31T14:34:25;6.13;;;1.27;;
5014;SDS011;2526;51.060;4.228;2023-08-31T14:36:51;1.58;;;0.63;;
5014;SDS011;2526;51.060;4.228;2023-08-31T14:39:17;7.18;;;1.02;;
5014;SDS011;2526;51.060;4.228;2023-08-31T14:41:43;6.35;;;0.90;;
5014;SDS011;2526;51.060;4.228;2023-08-31T14:44:08;6.47;;;1.20;;
5014;SDS011;2526;51.060;4.228;2023-08-31T14:46:34;7.07;;;0.85;;
5014;SDS011;2526;51.060;4.228;2023-08-31T14:48:59;3.08;;;0.73;;
5014;SDS011;2526;51.060;4.228;2023-08-31T14:51:25;12.90;;;1.20;;
5014;SDS011;2526;51.060;4.228;2023-08-31T14:53:50;2.05;;;0.98;;
5014;SDS011;2526;51.060;4.228;2023-08-31T14:56:16;1.40;;;0.70;;
5014;SDS011;2526;51.060;4.228;2023-08-31T14:58:42;4.03;;;1.17;;
5014;SDS011;2526;51.060;4.228;2023-08-31T15:01:07;11.70;;;1.73;;
5014;SDS011;2526;51.060;4.228;2023-08-31T15:03:33;1.52;;;1.05;;
5014;SDS011;2526;51.060;4.228;2023-08-31T15:05:58;1.80;;;0.85;;
5014;SDS011;2526;51.060;4.228;2023-08-31T15:08:34;3.95;;;1.20;;
5014;SDS011;2526;51.060;4.228;2023-08-31T15:11:01;4.78;;;1.23;;
5014;SDS011;2526;51.060;4.228;2023-08-31T15:13:27;3.58;;;2.05;;
5014;SDS011;2526;51.060;4.228;2023-08-31T15:15:53;0.90;;;0.80;;
5014;SDS011;2526;51.060;4.228;2023-08-31T15:18:18;3.60;;;1.60;;
5014;SDS011;2526;51.060;4.228;2023-08-31T15:20:47;3.08;;;1.02;;
5014;SDS011;2526;51.060;4.228;2023-08-31T15:23:13;1.60;;;1.50;;
5014;SDS011;2526;51.060;4.228;2023-08-31T15:25:38;8.13;;;1.58;;
5014;SDS011;2526;51.060;4.228;2023-08-31T15:28:04;8.70;;;1.73;;
5014;SDS011;2526;51.060;4.228;2023-08-31T15:30:29;6.72;;;1.92;;